Time;durP1;ratioP1;P1;durP2;ratioP2;P2;SDS_P1;SDS_P2;PMS_P1;PMS_P2;Temp;Humidity;BMP_temperature;BMP_pressure;BME280_temperature;BME280_humidity;BME280_pressure;Samples;Min_cycle;Max_cycle;Signal;HPM_P1;HPM_P2
2022/01/24 00:01:37;;;;;;;6.68;4.68;;;6.70;99.90;;;;;;4140376;28;20528;-62
2022/01/24 00:03:37;;;;;;;5.85;4.18;;;6.80;99.90;;;;;;4139706;28;20049;-62
2022/01/24 00:05:40;;;;;;;5.57;4.20;;;6.80;99.90;;;;;;4137089;28;20038;-62
2022/01/24 00:07:40;;;;;;;6.13;4.20;;;6.80;99.90;;;;;;4141572;28;20037;-62
2022/01/24 00:09:41;;;;;;;5.18;3.88;;;6.80;99.90;;;;;;4139651;28;20466;-62
2022/01/24 00:11:47;;;;;;;5.60;4.18;;;6.80;99.90;;;;;;4139715;28;20474;-62
2022/01/24 00:16:34;;;;;;;5.50;4.13;;;6.90;99.90;;;;;;4142791;28;20034;-62
2022/01/24 00:27:51;;;;;;;7.03;4.50;;;7.00;99.90;;;;;;4141688;28;20042;-66
2022/01/24 00:29:52;;;;;;;6.65;4.88;;;7.00;99.90;;;;;;4139471;28;20062;-63
2022/01/24 00:31:55;;;;;;;6.28;4.53;;;7.00;99.90;;;;;;4139724;28;20061;-62
2022/01/24 00:33:55;;;;;;;;;;;7.00;99.90;;;;;;4135886;28;20046;-62
2022/01/24 00:35:56;;;;;;;6.05;4.28;;;7.00;99.90;;;;;;4144399;28;20369;-63
2022/01/24 00:38:00;;;;;;;7.47;5.32;;;6.90;99.90;;;;;;4143839;28;20037;-62
2022/01/24 00:40:01;;;;;;;7.13;4.35;;;6.90;99.90;;;;;;4133679;28;20042;-62
2022/01/24 00:46:29;;;;;;;7.75;4.72;;;6.90;99.90;;;;;;4141851;28;20103;-62
2022/01/24 00:48:54;;;;;;;7.65;5.05;;;6.90;99.90;;;;;;4135695;28;20366;-63
2022/01/24 00:53:49;;;;;;;8.05;4.95;;;6.80;99.90;;;;;;4136831;28;20050;-62
2022/01/24 00:55:49;;;;;;;8.57;5.13;;;6.80;99.90;;;;;;4145479;28;20116;-61
2022/01/24 00:57:50;;;;;;;7.07;4.80;;;6.80;99.90;;;;;;4143247;28;20532;-61
2022/01/24 00:59:51;;;;;;;7.28;4.72;;;6.90;99.90;;;;;;4141483;28;20410;-62
2022/01/24 01:01:52;;;;;;;9.10;5.00;;;6.80;99.90;;;;;;4142804;28;20065;-62
2022/01/24 01:03:52;;;;;;;8.60;5.10;;;6.80;99.90;;;;;;4144207;28;20141;-63
2022/01/24 01:08:13;;;;;;;6.57;4.35;;;6.80;99.90;;;;;;4145444;28;20535;-62
2022/01/24 01:19:32;;;;;;;7.18;4.82;;;6.60;99.90;;;;;;4146426;28;20117;-62
2022/01/24 01:21:33;;;;;;;5.72;3.80;;;6.60;99.90;;;;;;4144397;28;20064;-62
2022/01/24 01:23:36;;;;;;;5.65;3.65;;;6.60;99.90;;;;;;4140918;28;20044;-62
2022/01/24 01:25:39;;;;;;;6.50;4.00;;;6.50;99.90;;;;;;4140000;28;20042;-62
2022/01/24 01:27:43;;;;;;;5.05;3.78;;;6.50;99.90;;;;;;4141012;28;20029;-62
2022/01/24 01:29:59;;;;;;;5.30;3.78;;;6.40;99.90;;;;;;4143610;28;20034;-62
2022/01/24 01:36:35;;;;;;;7.75;3.67;;;6.40;99.90;;;;;;4138795;28;20045;-61
2022/01/24 01:52:18;;;;;;;5.82;3.75;;;6.40;99.90;;;;;;4144272;28;20448;-63
2022/01/24 01:52:33;;;;;;;6.20;3.67;;;6.40;99.90;;;;;;4144598;28;20034;-62
2022/01/24 01:56:42;;;;;;;5.97;4.25;;;6.30;99.90;;;;;;4138022;28;21124;-62
2022/01/24 01:58:43;;;;;;;5.55;3.67;;;6.30;99.90;;;;;;4139987;28;20042;-62
2022/01/24 02:00:49;;;;;;;6.22;4.05;;;6.20;99.90;;;;;;4139903;28;20042;-62
2022/01/24 02:02:50;;;;;;;6.32;3.88;;;6.20;99.90;;;;;;4144724;28;20041;-62
2022/01/24 02:04:50;;;;;;;6.45;3.97;;;6.20;99.90;;;;;;4139866;28;20418;-62
2022/01/24 02:06:51;;;;;;;5.78;3.95;;;6.20;99.90;;;;;;4144244;28;20470;-62
2022/01/24 02:09:09;;;;;;;5.63;3.30;;;6.20;99.90;;;;;;4139747;28;20065;-62
2022/01/24 02:11:15;;;;;;;5.28;3.55;;;6.10;99.90;;;;;;4141394;28;20092;-62
2022/01/24 02:13:15;;;;;;;7.07;4.00;;;6.10;99.90;;;;;;4142588;28;20070;-62
2022/01/24 02:15:25;;;;;;;6.18;3.72;;;6.10;99.90;;;;;;4136797;28;20050;-62
2022/01/24 02:17:41;;;;;;;6.07;3.70;;;6.10;99.90;;;;;;4143196;28;20421;-61
2022/01/24 02:24:03;;;;;;;6.72;4.15;;;6.00;99.90;;;;;;4143324;28;20088;-62
2022/01/24 02:26:09;;;;;;;7.13;4.30;;;6.00;99.90;;;;;;4145630;28;20058;-62
2022/01/24 02:28:11;;;;;;;5.68;3.92;;;6.00;99.90;;;;;;4142169;28;20067;-62
2022/01/24 02:30:42;;;;;;;6.50;4.30;;;6.00;99.90;;;;;;4144330;28;20038;-63
2022/01/24 02:32:42;;;;;;;6.25;3.50;;;5.90;99.90;;;;;;4140090;28;20409;-62
2022/01/24 02:34:46;;;;;;;5.40;3.75;;;5.90;99.90;;;;;;4137523;28;20042;-62
2022/01/24 02:36:47;;;;;;;4.78;3.42;;;5.90;99.90;;;;;;4142393;28;20134;-62
2022/01/24 02:46:06;;;;;;;6.18;4.03;;;5.90;99.90;;;;;;4143778;28;20049;-62
2022/01/24 02:48:47;;;;;;;5.22;3.83;;;5.90;99.90;;;;;;4136907;28;20042;-62
2022/01/24 02:52:32;;;;;;;4.97;3.67;;;5.80;99.90;;;;;;4140652;28;20049;-62
2022/01/24 02:54:33;;;;;;;4.85;3.47;;;5.80;99.90;;;;;;4139261;28;20473;-62
2022/01/24 02:56:34;;;;;;;5.03;3.47;;;5.80;99.90;;;;;;4139655;28;20042;-62
2022/01/24 02:58:35;;;;;;;5.85;3.67;;;5.80;99.90;;;;;;4142939;28;20049;-62
2022/01/24 03:00:37;;;;;;;6.50;3.92;;;5.80;99.90;;;;;;4136228;28;20401;-62
2022/01/24 03:02:38;;;;;;;4.65;3.22;;;5.80;99.90;;;;;;4143484;28;20038;-62
2022/01/24 03:04:39;;;;;;;4.05;3.25;;;5.70;99.90;;;;;;4138721;28;20076;-62
2022/01/24 03:06:39;;;;;;;6.43;3.97;;;5.70;99.90;;;;;;4136939;28;20026;-62
2022/01/24 03:08:41;;;;;;;6.55;4.00;;;5.70;99.90;;;;;;4136828;28;20462;-62
2022/01/24 03:10:45;;;;;;;6.30;4.00;;;5.70;99.90;;;;;;4136731;28;20042;-62
2022/01/24 03:12:57;;;;;;;6.35;4.25;;;5.70;99.90;;;;;;4143676;28;20381;-62
2022/01/24 03:14:58;;;;;;;5.70;3.77;;;5.70;99.90;;;;;;4144190;28;20084;-62
2022/01/24 03:16:58;;;;;;;5.20;3.60;;;5.60;99.90;;;;;;4142733;28;20041;-62
2022/01/24 03:18:59;;;;;;;5.93;3.67;;;5.60;99.90;;;;;;4139812;28;20069;-62
2022/01/24 03:21:00;;;;;;;5.82;3.55;;;5.60;99.90;;;;;;4135034;28;20042;-62
2022/01/24 03:23:01;;;;;;;5.30;3.33;;;5.50;99.90;;;;;;4140946;28;20058;-62
2022/01/24 03:25:02;;;;;;;7.63;3.72;;;5.50;99.90;;;;;;4137562;28;20042;-64
2022/01/24 03:27:03;;;;;;;4.60;3.30;;;5.40;99.90;;;;;;4137330;28;20404;-62
2022/01/24 03:29:04;;;;;;;4.85;3.60;;;5.40;99.90;;;;;;4137126;28;20042;-62
2022/01/24 03:31:04;;;;;;;4.10;3.30;;;5.40;99.90;;;;;;4139001;28;20070;-62
2022/01/24 03:33:06;;;;;;;5.82;3.75;;;5.40;99.90;;;;;;4137411;28;20058;-62
2022/01/24 03:35:07;;;;;;;6.35;4.07;;;5.30;99.90;;;;;;4143035;28;20048;-63
2022/01/24 03:37:08;;;;;;;5.40;3.47;;;5.40;99.90;;;;;;4135407;28;20035;-62
2022/01/24 03:39:10;;;;;;;5.28;3.70;;;5.30;99.90;;;;;;4136283;28;20053;-62
2022/01/24 03:41:10;;;;;;;6.00;4.15;;;5.30;99.90;;;;;;4141585;28;20448;-62
2022/01/24 03:43:11;;;;;;;7.03;4.35;;;5.30;99.90;;;;;;4141103;28;20129;-62
2022/01/24 03:45:12;;;;;;;5.13;3.88;;;5.30;99.90;;;;;;4134673;28;20068;-62
2022/01/24 03:47:30;;;;;;;6.00;3.85;;;5.40;99.90;;;;;;4138197;28;20485;-62
2022/01/24 03:49:46;;;;;;;5.45;3.47;;;5.30;99.90;;;;;;4140825;28;20045;-62
2022/01/24 03:51:46;;;;;;;4.28;3.25;;;5.40;99.90;;;;;;4141743;28;20160;-62
2022/01/24 03:53:48;;;;;;;6.35;4.05;;;5.30;99.90;;;;;;4142362;28;20062;-62
2022/01/24 03:55:49;;;;;;;6.67;4.13;;;5.30;99.90;;;;;;4139872;28;20045;-62
2022/01/24 03:57:50;;;;;;;7.90;4.18;;;5.30;99.90;;;;;;4139153;28;20276;-62
2022/01/24 03:59:51;;;;;;;7.28;3.90;;;5.30;99.90;;;;;;4138012;28;20389;-62
2022/01/24 04:01:52;;;;;;;6.13;4.43;;;5.30;99.90;;;;;;4134649;28;20137;-62
2022/01/24 04:03:52;;;;;;;6.05;4.18;;;5.30;99.90;;;;;;4140765;28;20049;-62
2022/01/24 04:05:53;;;;;;;4.90;3.88;;;5.30;99.90;;;;;;4136448;28;20042;-62
2022/01/24 04:07:54;;;;;;;6.18;4.32;;;5.30;99.90;;;;;;4138439;28;20035;-62
2022/01/24 04:09:54;;;;;;;7.05;4.47;;;5.30;99.90;;;;;;4143935;28;20040;-66
2022/01/24 04:11:57;;;;;;;6.82;4.50;;;5.30;99.90;;;;;;4142838;28;20046;-63
2022/01/24 04:14:10;;;;;;;5.43;3.92;;;5.30;99.90;;;;;;4145051;28;20049;-63
2022/01/24 04:16:25;;;;;;;8.27;4.15;;;5.30;99.90;;;;;;4135349;28;20042;-62
2022/01/24 04:22:51;;;;;;;7.43;4.47;;;5.40;99.90;;;;;;4142346;28;20362;-62
2022/01/24 04:24:59;;;;;;;6.43;4.38;;;5.40;99.90;;;;;;4143413;28;20394;-62
2022/01/24 04:26:59;;;;;;;6.13;4.47;;;5.40;99.90;;;;;;4142427;28;20131;-62
2022/01/24 04:29:00;;;;;;;6.40;4.38;;;5.40;99.90;;;;;;4139872;28;20042;-63
2022/01/24 04:31:01;;;;;;;6.68;4.75;;;5.40;99.90;;;;;;4142861;28;20046;-62
2022/01/24 04:33:02;;;;;;;6.55;4.03;;;5.40;99.90;;;;;;4144786;28;20504;-63
2022/01/24 04:35:02;;;;;;;8.02;4.72;;;5.50;99.90;;;;;;4136941;28;20042;-63
2022/01/24 04:37:03;;;;;;;5.47;4.30;;;5.50;99.90;;;;;;4141197;28;20034;-62
2022/01/24 04:39:04;;;;;;;7.22;4.53;;;5.50;99.90;;;;;;4143605;28;20034;-62
2022/01/24 04:41:14;;;;;;;6.15;4.15;;;5.40;99.90;;;;;;4141991;28;20173;-62
2022/01/24 04:43:50;;;;;;;6.00;4.07;;;5.40;99.90;;;;;;4142236;28;25353;-63
2022/01/24 04:45:50;;;;;;;;;;;5.50;99.90;;;;;;4143741;28;20038;-62
2022/01/24 04:50:41;;;;;;;4.85;4.10;;;5.40;99.90;;;;;;4140628;28;20073;-63
2022/01/24 04:54:45;;;;;;;6.78;4.35;;;5.50;99.90;;;;;;4142858;28;20046;-62
2022/01/24 04:56:46;;;;;;;4.57;3.35;;;5.50;99.90;;;;;;4142259;28;20049;-62
2022/01/24 04:58:47;;;;;;;5.03;4.00;;;5.50;99.90;;;;;;4145511;28;20046;-62
2022/01/24 05:00:47;;;;;;;5.57;3.80;;;5.50;99.90;;;;;;4142380;28;20470;-62
2022/01/24 05:02:48;;;;;;;4.82;3.88;;;5.50;99.90;;;;;;4144031;28;20046;-62
2022/01/24 05:04:50;;;;;;;5.22;3.60;;;5.50;99.90;;;;;;4144044;28;20048;-62
2022/01/24 05:06:50;;;;;;;5.22;3.88;;;5.60;99.90;;;;;;4144958;28;20466;-62
2022/01/24 05:08:51;;;;;;;4.72;3.83;;;5.60;99.90;;;;;;4143526;28;20041;-62
2022/01/24 05:11:03;;;;;;;5.88;3.78;;;5.50;99.90;;;;;;4142808;28;20065;-62
2022/01/24 05:24:22;;;;;;;4.50;3.72;;;5.70;99.90;;;;;;4142122;28;20061;-62
2022/01/24 05:26:22;;;;;;;4.95;3.85;;;5.70;99.90;;;;;;4142042;28;20125;-63
2022/01/24 05:28:23;;;;;;;5.03;4.13;;;5.70;99.90;;;;;;4139041;28;20122;-62
2022/01/24 05:30:24;;;;;;;3.95;3.30;;;5.70;99.90;;;;;;4140040;28;20045;-62
2022/01/24 05:32:25;;;;;;;4.82;3.83;;;5.80;99.90;;;;;;4142113;28;20034;-62
2022/01/24 05:34:26;;;;;;;4.60;3.40;;;5.80;99.90;;;;;;4144865;28;20038;-62
2022/01/24 05:36:26;;;;;;;4.95;3.55;;;5.80;99.90;;;;;;4142387;28;20738;-63
2022/01/24 05:38:27;;;;;;;4.30;3.45;;;5.90;99.90;;;;;;4137833;28;20036;-63
2022/01/24 05:40:28;;;;;;;5.57;4.03;;;5.90;99.90;;;;;;4143589;28;20046;-63
2022/01/24 05:42:28;;;;;;;6.38;4.55;;;5.80;99.90;;;;;;4140319;28;20496;-64
2022/01/24 05:44:29;;;;;;;7.10;4.82;;;5.90;99.90;;;;;;4141815;28;20064;-64
2022/01/24 05:46:29;;;;;;;5.45;4.10;;;5.90;99.90;;;;;;4138967;28;20446;-64
2022/01/24 05:48:30;;;;;;;5.13;4.07;;;5.90;99.90;;;;;;4140009;28;20038;-62
2022/01/24 05:50:30;;;;;;;4.18;3.35;;;5.90;99.90;;;;;;4139566;28;20041;-62
2022/01/24 05:52:31;;;;;;;4.15;3.55;;;5.90;99.90;;;;;;4139172;28;20096;-60
2022/01/24 05:54:32;;;;;;;4.82;4.00;;;6.00;99.90;;;;;;4140444;28;20038;-61
2022/01/24 05:56:32;;;;;;;5.03;3.88;;;6.00;99.90;;;;;;4139978;28;20042;-63
2022/01/24 05:58:33;;;;;;;5.47;3.90;;;6.00;99.90;;;;;;4143007;28;20041;-63
2022/01/24 06:00:33;;;;;;;5.55;4.00;;;6.10;99.90;;;;;;4139361;28;20462;-63
2022/01/24 06:02:34;;;;;;;4.70;3.88;;;6.00;99.90;;;;;;4137208;28;20042;-62
2022/01/24 06:04:34;;;;;;;6.28;4.32;;;6.10;99.90;;;;;;4144201;28;20038;-63
2022/01/24 06:06:35;;;;;;;5.00;3.92;;;6.00;99.90;;;;;;4140803;28;20444;-62
2022/01/24 06:08:36;;;;;;;5.15;4.00;;;6.00;99.90;;;;;;4136477;28;20039;-62
2022/01/24 06:10:38;;;;;;;5.05;4.15;;;6.10;99.90;;;;;;4135955;28;20034;-62
2022/01/24 06:12:38;;;;;;;6.32;4.60;;;6.10;99.90;;;;;;4140980;28;20048;-62
2022/01/24 06:14:39;;;;;;;7.05;4.93;;;6.10;99.90;;;;;;4139686;28;20060;-62
2022/01/24 06:16:40;;;;;;;6.15;4.45;;;6.20;99.90;;;;;;4141282;28;20041;-63
2022/01/24 06:18:40;;;;;;;7.13;4.25;;;6.10;99.90;;;;;;4141501;28;20040;-62
2022/01/24 06:20:41;;;;;;;5.90;3.92;;;6.20;99.90;;;;;;4137227;28;20456;-63
2022/01/24 06:22:42;;;;;;;5.65;4.55;;;6.10;99.90;;;;;;4140083;28;20092;-62
2022/01/24 06:24:42;;;;;;;6.60;3.88;;;6.20;99.90;;;;;;4143505;28;20448;-62
2022/01/24 06:26:43;;;;;;;4.60;3.83;;;6.20;99.90;;;;;;4142416;28;20065;-62
2022/01/24 06:28:44;;;;;;;4.97;3.90;;;6.20;99.90;;;;;;4140509;28;20048;-62
2022/01/24 06:30:45;;;;;;;6.38;4.57;;;6.20;99.90;;;;;;4141205;28;20072;-62
2022/01/24 06:32:45;;;;;;;5.70;4.35;;;6.20;99.90;;;;;;4140305;28;20073;-62
2022/01/24 06:34:46;;;;;;;6.15;4.80;;;6.30;99.90;;;;;;4143278;28;21196;-62
2022/01/24 06:36:46;;;;;;;5.28;4.30;;;6.30;99.90;;;;;;4143358;28;21329;-63
2022/01/24 06:38:47;;;;;;;6.88;4.82;;;6.30;99.90;;;;;;4143149;28;20473;-62
2022/01/24 06:40:48;;;;;;;7.07;5.07;;;6.30;99.90;;;;;;4142289;28;20038;-62
2022/01/24 06:42:48;;;;;;;5.90;4.60;;;6.30;99.90;;;;;;4143373;28;20044;-62
2022/01/24 06:44:51;;;;;;;6.50;4.75;;;6.30;99.90;;;;;;4143728;28;20184;-62
2022/01/24 06:46:51;;;;;;;6.95;4.53;;;6.30;99.90;;;;;;4142403;28;20461;-63
2022/01/24 06:48:52;;;;;;;7.28;5.15;;;6.30;99.90;;;;;;4142428;28;20080;-62
2022/01/24 06:50:53;;;;;;;6.40;4.82;;;6.30;99.90;;;;;;4141281;28;20034;-62
2022/01/24 06:52:53;;;;;;;5.95;4.60;;;6.30;99.90;;;;;;4143682;28;20042;-62
2022/01/24 06:54:54;;;;;;;5.70;4.90;;;6.30;99.90;;;;;;4142549;28;20402;-62
2022/01/24 06:56:55;;;;;;;5.65;4.70;;;6.30;99.90;;;;;;4142270;28;20505;-62
2022/01/24 06:58:55;;;;;;;6.35;4.80;;;6.30;99.90;;;;;;4144127;28;20104;-62
2022/01/24 07:00:56;;;;;;;8.00;4.80;;;6.30;99.90;;;;;;4140782;28;20494;-62
2022/01/24 07:02:57;;;;;;;7.38;5.07;;;6.30;99.90;;;;;;4142020;28;20060;-62
2022/01/24 07:04:58;;;;;;;5.45;4.43;;;6.30;99.90;;;;;;4142481;28;20052;-63
2022/01/24 07:06:59;;;;;;;6.22;4.57;;;6.30;99.90;;;;;;4138341;28;20050;-63
2022/01/24 07:08:59;;;;;;;5.80;4.88;;;6.30;99.90;;;;;;4140027;28;20120;-62
2022/01/24 07:11:00;;;;;;;7.50;4.88;;;6.30;99.90;;;;;;4141778;28;20042;-63
2022/01/24 07:13:00;;;;;;;6.07;4.80;;;6.40;99.90;;;;;;4142046;28;20172;-63
2022/01/24 07:15:07;;;;;;;6.18;4.93;;;6.40;99.90;;;;;;4142406;28;20066;-62
2022/01/24 07:19:32;;;;;;;7.35;5.07;;;6.40;99.90;;;;;;4142209;28;20041;-62
2022/01/24 07:21:33;;;;;;;5.70;4.68;;;6.40;99.90;;;;;;4141127;28;20038;-62
2022/01/24 07:23:33;;;;;;;7.28;4.80;;;6.40;99.90;;;;;;4143189;28;20108;-62
2022/01/24 07:25:34;;;;;;;6.80;5.03;;;6.40;99.90;;;;;;4141812;28;20375;-62
2022/01/24 07:27:35;;;;;;;5.45;4.47;;;6.40;99.90;;;;;;4142605;28;21180;-62
2022/01/24 07:29:35;;;;;;;5.40;4.40;;;6.40;99.90;;;;;;4142982;28;20046;-62
2022/01/24 07:31:36;;;;;;;5.63;4.63;;;6.40;99.90;;;;;;4142286;28;20045;-62
2022/01/24 07:33:39;;;;;;;6.13;4.65;;;6.40;99.90;;;;;;4141943;28;20054;-63
2022/01/24 07:35:40;;;;;;;5.80;4.72;;;6.40;99.90;;;;;;4140525;28;20045;-62
2022/01/24 07:37:41;;;;;;;5.35;4.55;;;6.40;99.90;;;;;;4140467;28;20038;-62
2022/01/24 07:39:42;;;;;;;7.78;6.10;;;6.40;99.90;;;;;;4141534;28;20052;-62
2022/01/24 07:41:45;;;;;;;8.38;6.05;;;6.20;99.90;;;;;;4134103;28;20656;-62
2022/01/24 07:43:46;;;;;;;7.35;6.13;;;6.00;99.90;;;;;;4141472;28;20061;-62
2022/01/24 07:45:47;;;;;;;10.55;6.68;;;5.80;99.90;;;;;;4138226;28;20034;-62
2022/01/24 07:47:49;;;;;;;8.73;6.15;;;5.80;99.90;;;;;;4142376;28;20038;-62
2022/01/24 07:49:50;;;;;;;7.40;6.05;;;5.70;99.90;;;;;;4138650;28;20084;-62
2022/01/24 07:51:51;;;;;;;10.15;6.82;;;5.60;99.90;;;;;;4143157;28;20460;-62
2022/01/24 07:53:51;;;;;;;7.65;5.88;;;5.60;99.90;;;;;;4140745;28;20046;-62
2022/01/24 07:55:53;;;;;;;6.30;5.53;;;5.70;99.90;;;;;;4140097;28;20481;-62
2022/01/24 07:57:54;;;;;;;6.45;5.63;;;5.60;99.90;;;;;;4142385;28;20076;-62
2022/01/24 07:59:54;;;;;;;10.18;5.80;;;5.60;99.90;;;;;;4141109;28;20070;-62
2022/01/24 08:01:55;;;;;;;7.15;5.78;;;5.50;99.90;;;;;;4143371;28;20511;-62
2022/01/24 08:03:56;;;;;;;6.45;5.18;;;5.40;99.90;;;;;;4146142;28;20524;-62
2022/01/24 08:05:56;;;;;;;5.85;5.25;;;5.50;99.90;;;;;;4145710;28;20061;-63
2022/01/24 08:07:57;;;;;;;6.93;5.70;;;5.50;99.90;;;;;;4144327;28;20470;-62
2022/01/24 08:09:58;;;;;;;7.60;5.88;;;5.50;99.90;;;;;;4144672;28;20121;-65
2022/01/24 08:11:58;;;;;;;6.88;5.50;;;5.50;99.90;;;;;;4145620;28;20163;-62
2022/01/24 08:13:59;;;;;;;5.38;4.85;;;5.60;99.90;;;;;;4145898;28;20519;-63
2022/01/24 08:15:59;;;;;;;8.23;5.15;;;5.70;99.90;;;;;;4144349;28;20054;-63
2022/01/24 08:18:00;;;;;;;7.45;5.30;;;5.70;99.90;;;;;;4145373;28;20124;-62
2022/01/24 08:20:01;;;;;;;5.45;4.50;;;5.70;99.90;;;;;;4145049;28;20444;-63
2022/01/24 08:22:02;;;;;;;6.28;5.30;;;5.70;99.90;;;;;;4143938;28;20048;-62
2022/01/24 08:24:02;;;;;;;4.78;4.25;;;5.70;99.90;;;;;;4144938;28;20053;-62
2022/01/24 08:26:03;;;;;;;5.40;4.32;;;5.80;99.90;;;;;;4142973;28;20474;-63
2022/01/24 08:28:04;;;;;;;8.50;4.68;;;5.90;99.90;;;;;;4145697;28;20069;-62
2022/01/24 08:30:15;;;;;;;5.22;4.38;;;5.90;99.90;;;;;;4145484;28;20464;-63
2022/01/24 08:32:17;;;;;;;9.15;4.57;;;5.90;99.90;;;;;;4145587;28;20049;-63
2022/01/24 08:34:17;;;;;;;4.72;3.92;;;6.00;99.90;;;;;;4145140;28;20493;-62
2022/01/24 08:36:18;;;;;;;6.70;3.83;;;5.90;99.90;;;;;;4144388;28;20057;-62
2022/01/24 08:38:21;;;;;;;5.68;4.00;;;5.90;99.90;;;;;;4144148;28;20405;-62
2022/01/24 08:40:27;;;;;;;7.40;4.50;;;6.00;99.90;;;;;;4143518;28;20354;-62
2022/01/24 08:46:51;;;;;;;7.15;4.65;;;6.10;99.90;;;;;;4144175;28;20061;-62
2022/01/24 08:48:51;;;;;;;7.60;4.85;;;6.10;99.90;;;;;;4145170;28;20030;-62
2022/01/24 08:50:55;;;;;;;7.63;4.75;;;6.10;99.90;;;;;;4143126;28;20050;-62
2022/01/24 08:53:03;;;;;;;6.40;4.32;;;6.10;99.90;;;;;;4144447;28;20038;-64
2022/01/24 08:55:04;;;;;;;7.40;4.00;;;6.20;99.90;;;;;;4144497;28;20048;-64
2022/01/24 08:57:05;;;;;;;6.80;4.90;;;6.20;99.90;;;;;;4145391;28;20409;-63
2022/01/24 08:59:06;;;;;;;7.05;4.50;;;6.30;99.90;;;;;;4144216;28;20085;-62
2022/01/24 09:01:07;;;;;;;8.30;5.15;;;6.20;99.90;;;;;;4143882;28;20049;-62
2022/01/24 09:03:07;;;;;;;7.82;5.10;;;6.20;99.90;;;;;;4146101;28;20058;-61
2022/01/24 09:05:08;;;;;;;8.63;4.75;;;6.20;99.90;;;;;;4143958;28;20057;-65
2022/01/24 09:07:09;;;;;;;7.03;4.60;;;6.30;99.90;;;;;;4144495;28;20048;-62
2022/01/24 09:09:10;;;;;;;6.55;4.57;;;6.30;99.90;;;;;;4143173;28;20061;-62
2022/01/24 09:11:11;;;;;;;7.38;4.95;;;6.30;99.90;;;;;;4143336;28;20037;-62
2022/01/24 09:13:12;;;;;;;7.40;4.60;;;6.30;99.90;;;;;;4143549;28;20053;-62
2022/01/24 09:15:14;;;;;;;6.53;4.70;;;6.30;99.90;;;;;;4142281;28;20052;-62
2022/01/24 09:17:15;;;;;;;7.50;4.83;;;6.30;99.90;;;;;;4142338;28;20034;-62
2022/01/24 09:19:16;;;;;;;7.53;5.05;;;6.30;99.90;;;;;;4145656;28;20969;-62
2022/01/24 09:21:16;;;;;;;6.45;4.53;;;6.30;99.90;;;;;;4143682;28;20038;-62
2022/01/24 09:23:18;;;;;;;7.25;5.25;;;6.40;99.90;;;;;;4142764;28;20049;-62
2022/01/24 09:25:20;;;;;;;8.70;4.85;;;6.30;99.90;;;;;;4142466;28;20105;-63
2022/01/24 09:27:21;;;;;;;5.22;4.13;;;6.40;99.90;;;;;;4142859;28;20038;-61
2022/01/24 09:29:21;;;;;;;5.95;4.15;;;6.40;99.90;;;;;;4144273;28;20532;-62
2022/01/24 09:31:22;;;;;;;10.10;4.40;;;6.40;99.90;;;;;;4143853;28;20435;-62
2022/01/24 09:33:24;;;;;;;6.53;4.38;;;6.60;99.90;;;;;;4142000;28;20469;-62
2022/01/24 09:35:28;;;;;;;6.07;4.35;;;6.70;99.90;;;;;;4143503;28;20041;-62
2022/01/24 09:37:30;;;;;;;5.80;4.15;;;6.90;99.90;;;;;;4143062;28;20397;-62
2022/01/24 09:39:30;;;;;;;6.03;4.30;;;7.10;99.90;;;;;;4144221;28;20846;-63
2022/01/24 09:41:31;;;;;;;5.43;4.03;;;7.30;99.90;;;;;;4143871;28;20136;-63
2022/01/24 09:43:33;;;;;;;7.40;3.13;;;7.30;99.90;;;;;;4143303;28;20068;-62
2022/01/24 09:45:34;;;;;;;6.22;3.65;;;7.50;99.90;;;;;;4143713;28;20125;-63
2022/01/24 09:47:35;;;;;;;5.97;3.53;;;7.60;99.90;;;;;;4143969;28;20096;-63
2022/01/24 09:49:35;;;;;;;4.57;3.80;;;7.60;99.90;;;;;;4143391;28;20046;-63
2022/01/24 09:51:37;;;;;;;5.10;3.55;;;7.70;99.90;;;;;;4142217;28;20045;-63
2022/01/24 09:53:40;;;;;;;6.35;3.47;;;7.80;99.90;;;;;;4144111;28;20085;-63
2022/01/24 09:55:41;;;;;;;4.03;3.05;;;7.90;99.90;;;;;;4142703;28;20076;-63
2022/01/24 09:57:42;;;;;;;5.72;3.50;;;7.90;99.90;;;;;;4144812;28;20045;-63
2022/01/24 09:59:43;;;;;;;4.25;3.10;;;8.00;99.90;;;;;;4143785;28;20045;-63
2022/01/24 10:01:44;;;;;;;4.82;3.05;;;7.90;99.90;;;;;;4142969;28;20385;-63
2022/01/24 10:04:04;;;;;;;4.68;3.22;;;8.00;99.90;;;;;;4143544;28;20504;-63
2022/01/24 10:06:05;;;;;;;5.40;3.67;;;8.10;99.90;;;;;;4142115;28;20056;-63
2022/01/24 10:08:16;;;;;;;4.28;3.30;;;8.00;99.90;;;;;;4144495;28;20061;-63
2022/01/24 10:10:29;;;;;;;5.50;3.60;;;7.80;99.90;;;;;;4142028;28;20042;-63
2022/01/24 10:17:13;;;;;;;4.80;3.33;;;7.70;99.90;;;;;;4141081;28;20033;-63
2022/01/24 10:19:21;;;;;;;4.95;3.80;;;7.60;99.90;;;;;;4144261;28;20425;-63
2022/01/24 10:21:22;;;;;;;5.53;3.58;;;7.60;99.90;;;;;;4143414;28;20457;-63
2022/01/24 10:23:26;;;;;;;5.55;3.90;;;7.50;99.90;;;;;;4143033;28;20038;-63
2022/01/24 10:25:27;;;;;;;4.50;3.65;;;7.50;99.90;;;;;;4141428;28;20037;-63
2022/01/24 10:27:28;;;;;;;6.03;3.78;;;7.40;99.90;;;;;;4144330;28;20048;-63
2022/01/24 10:29:29;;;;;;;5.28;4.07;;;7.30;99.90;;;;;;4142348;28;20042;-63
2022/01/24 10:31:30;;;;;;;6.15;4.10;;;7.30;99.90;;;;;;4141191;28;20045;-64
2022/01/24 10:33:30;;;;;;;7.03;4.15;;;7.30;99.90;;;;;;4143265;28;20062;-64
2022/01/24 10:35:39;;;;;;;4.28;3.70;;;7.20;99.90;;;;;;4142095;28;20132;-64
2022/01/24 10:37:40;;;;;;;6.63;3.92;;;7.20;99.90;;;;;;4143670;28;20037;-64
2022/01/24 10:42:10;;;;;;;7.32;4.53;;;7.20;99.90;;;;;;4142201;28;20177;-63
2022/01/24 10:44:11;;;;;;;6.15;4.60;;;7.20;99.90;;;;;;4142414;28;20074;-63
2022/01/24 10:46:12;;;;;;;4.28;3.33;;;7.10;99.90;;;;;;4141393;28;20160;-62
2022/01/24 10:48:13;;;;;;;5.40;3.95;;;7.00;99.90;;;;;;4142961;28;20037;-62
2022/01/24 10:50:21;;;;;;;7.28;4.43;;;7.00;99.90;;;;;;4139001;28;20429;-63
2022/01/24 10:52:25;;;;;;;8.07;4.20;;;7.00;99.90;;;;;;4138561;28;20045;-62
2022/01/24 10:54:28;;;;;;;5.75;4.25;;;7.00;99.90;;;;;;4141516;28;20405;-63
2022/01/24 10:56:31;;;;;;;;;;;7.00;99.90;;;;;;4140607;28;20052;-63
2022/01/24 10:58:34;;;;;;;;;;;6.90;99.90;;;;;;4143381;28;19917;-63
2022/01/24 11:00:37;;;;;;;5.03;3.90;;;6.90;99.90;;;;;;4142037;28;19917;-63
2022/01/24 11:02:42;;;;;;;11.27;3.95;;;7.00;99.90;;;;;;4143473;28;20095;-63
2022/01/24 11:04:43;;;;;;;6.03;3.80;;;7.00;99.90;;;;;;4141913;28;20046;-63
2022/01/24 11:06:46;;;;;;;4.80;3.85;;;7.00;99.90;;;;;;4142626;28;20544;-63
2022/01/24 11:08:47;;;;;;;6.57;3.85;;;7.00;99.90;;;;;;4142409;28;20070;-63
2022/01/24 11:10:49;;;;;;;6.50;3.95;;;7.00;99.90;;;;;;4142581;28;20042;-63
2022/01/24 11:12:52;;;;;;;5.90;4.43;;;7.10;99.90;;;;;;4142764;28;20041;-63
2022/01/24 11:14:53;;;;;;;6.80;4.18;;;7.10;99.90;;;;;;4140336;28;20054;-63
2022/01/24 11:16:57;;;;;;;4.10;3.60;;;7.10;99.90;;;;;;4138484;28;20035;-63
2022/01/24 11:19:00;;;;;;;5.90;4.35;;;7.20;99.90;;;;;;4141753;28;20072;-63
2022/01/24 11:21:06;;;;;;;6.65;4.18;;;7.20;99.90;;;;;;4140958;28;20038;-64
2022/01/24 11:23:07;;;;;;;6.97;4.43;;;7.30;99.90;;;;;;4142406;28;20807;-63
2022/01/24 11:25:09;;;;;;;7.97;4.30;;;7.20;99.90;;;;;;4142971;28;20044;-64
2022/01/24 11:27:10;;;;;;;5.97;4.38;;;7.10;99.90;;;;;;4141688;28;20054;-63
2022/01/24 11:29:12;;;;;;;5.22;4.10;;;7.20;99.90;;;;;;4142615;28;20068;-62
2022/01/24 11:31:24;;;;;;;9.33;4.97;;;7.20;99.90;;;;;;4141341;28;20038;-63
2022/01/24 11:33:52;;;;;;;5.38;4.45;;;7.10;99.90;;;;;;4141063;28;20080;-63
2022/01/24 11:36:00;;;;;;;7.28;4.85;;;7.00;99.90;;;;;;4141824;28;21568;-63
2022/01/24 11:38:02;;;;;;;5.63;4.78;;;7.10;99.90;;;;;;4141323;28;20096;-63
2022/01/24 11:40:07;;;;;;;6.18;4.85;;;7.10;99.90;;;;;;4141579;28;20382;-64
2022/01/24 11:42:08;;;;;;;7.10;5.35;;;7.10;99.90;;;;;;4142394;28;20473;-63
2022/01/24 11:44:12;;;;;;;7.28;5.03;;;7.10;99.90;;;;;;4143252;28;20096;-63
2022/01/24 11:46:31;;;;;;;5.70;4.68;;;7.10;99.90;;;;;;4140729;28;20030;-63
2022/01/24 11:48:33;;;;;;;7.97;4.53;;;7.10;99.90;;;;;;4142509;28;20060;-64
2022/01/24 11:50:36;;;;;;;6.75;4.68;;;7.20;99.90;;;;;;4141705;28;20047;-63
2022/01/24 11:52:37;;;;;;;5.95;4.40;;;7.20;99.90;;;;;;4142706;28;20646;-63
2022/01/24 11:55:00;;;;;;;6.40;4.78;;;7.20;99.90;;;;;;4141131;28;20049;-63
2022/01/24 11:57:27;;;;;;;6.93;4.30;;;7.20;99.90;;;;;;4136018;28;20039;-66
2022/01/24 11:59:28;;;;;;;5.82;4.82;;;7.20;99.90;;;;;;4124651;28;20425;-63
2022/01/24 12:01:36;;;;;;;8.77;4.93;;;7.20;99.90;;;;;;4125777;28;20043;-63
2022/01/24 12:03:49;;;;;;;6.47;4.95;;;7.20;99.90;;;;;;4142021;28;20042;-63
2022/01/24 12:05:53;;;;;;;8.65;5.25;;;7.10;99.90;;;;;;4140527;28;20037;-63
2022/01/24 12:08:03;;;;;;;8.23;5.53;;;7.20;99.90;;;;;;4141400;28;20084;-63
2022/01/24 12:10:32;;;;;;;8.60;5.47;;;7.10;99.90;;;;;;4140932;28;20034;-64
2022/01/24 12:12:50;;;;;;;6.95;5.10;;;7.00;99.90;;;;;;4141028;28;20129;-63
2022/01/24 12:14:50;;;;;;;6.32;4.85;;;7.00;99.90;;;;;;4141215;28;20559;-63
2022/01/24 12:16:52;;;;;;;6.68;5.28;;;7.00;99.90;;;;;;4142260;28;20114;-63
2022/01/24 12:18:58;;;;;;;9.30;5.78;;;7.00;99.90;;;;;;4141469;28;20064;-63
2022/01/24 12:21:01;;;;;;;8.63;5.93;;;7.00;99.90;;;;;;4141820;28;20050;-63
2022/01/24 12:23:20;;;;;;;9.48;5.82;;;7.00;99.90;;;;;;4142646;28;20053;-63
2022/01/24 12:26:02;;;;;;;9.50;5.45;;;7.00;99.90;;;;;;4141390;28;20061;-63
2022/01/24 12:28:16;;;;;;;6.63;5.00;;;7.00;99.90;;;;;;4133744;28;20100;-63